createdAt,value
2023-04-20T00:01:48.539Z,99764.95
2023-04-20T00:04:19.932Z,99761.90
2023-04-20T00:06:51.785Z,99759.17
2023-04-20T00:09:30.609Z,99765.98
2023-04-20T00:12:06.655Z,99759.55
2023-04-20T00:14:41.595Z,99759.02
2023-04-20T00:17:33.787Z,99759.91
2023-04-20T00:20:15.526Z,99757.54
2023-04-20T00:23:19.356Z,99748.63
2023-04-20T00:26:18.790Z,99745.80
2023-04-20T00:29:23.272Z,99747.45
2023-04-20T00:32:15.001Z,99744.50
2023-04-20T00:34:50.366Z,99739.34
2023-04-20T00:37:45.358Z,99735.69
2023-04-20T00:40:15.445Z,99733.17
2023-04-20T00:42:58.344Z,99732.63
2023-04-20T00:45:59.191Z,99727.14
2023-04-20T00:48:39.720Z,99726.21
2023-04-20T00:51:23.028Z,99723.91
2023-04-20T00:53:58.545Z,99722.73
2023-04-20T00:56:43.299Z,99714.42
2023-04-20T00:59:45.489Z,99711.79
2023-04-20T01:02:21.650Z,99708.14
2023-04-20T01:04:54.274Z,99700.59
2023-04-20T01:07:32.078Z,99702.26
2023-04-20T01:10:05.461Z,99700.23
2023-04-20T01:16:49.268Z,99700.29
2023-04-20T01:19:20.525Z,99694.55
2023-04-20T01:21:54.203Z,99698.08
2023-04-20T01:24:28.497Z,99702.91
2023-04-20T01:27:06.261Z,99699.80
2023-04-20T01:29:41.485Z,99698.63
2023-04-20T01:32:21.977Z,99692.91
2023-04-20T01:34:57.563Z,99685.23
2023-04-20T01:37:39.570Z,99684.23
2023-04-20T01:40:27.047Z,99679.00
2023-04-20T01:43:07.813Z,99677.05
2023-04-20T01:46:14.981Z,99675.56
2023-04-20T01:49:00.186Z,99678.55
2023-04-20T01:51:54.872Z,99678.27
2023-04-20T01:54:39.219Z,99673.76
2023-04-20T01:57:22.601Z,99670.12
2023-04-20T02:00:28.745Z,99664.95
2023-04-20T02:03:16.637Z,99669.41
2023-04-20T02:06:02.332Z,99662.75
2023-04-20T02:08:39.139Z,99665.48
2023-04-20T02:11:12.399Z,99663.23
2023-04-20T02:13:44.679Z,99663.80
2023-04-20T02:16:44.508Z,99660.32
2023-04-20T02:19:45.188Z,99658.96
2023-04-20T02:22:27.662Z,99663.46
2023-04-20T02:25:02.253Z,99662.09
2023-04-20T02:27:42.544Z,99656.39
2023-04-20T02:30:30.430Z,99663.01
2023-04-20T02:33:03.039Z,99658.40
2023-04-20T02:36:01.043Z,99661.09
2023-04-20T02:38:38.116Z,99652.69
2023-04-20T02:41:15.956Z,99651.69
2023-04-20T02:43:57.197Z,99646.73
2023-04-20T02:46:29.943Z,99646.14
2023-04-20T02:49:34.427Z,99649.95
2023-04-20T02:52:04.501Z,99648.98
2023-04-20T02:54:39.513Z,99643.67
2023-04-20T02:57:39.180Z,99634.84
2023-04-20T03:00:46.958Z,99630.29
2023-04-20T03:07:59.782Z,99618.23
2023-04-20T03:10:54.424Z,99615.08
2023-04-20T03:14:24.337Z,99618.96
2023-04-20T03:17:00.044Z,99618.45
2023-04-20T03:20:38.595Z,99616.14
2023-04-20T03:23:21.796Z,99615.34
2023-04-20T03:26:06.699Z,99612.80
2023-04-20T03:29:00.393Z,99605.85
2023-04-20T03:31:57.646Z,99605.36
2023-04-20T03:34:31.662Z,99601.23
2023-04-20T03:37:07.248Z,99602.37
2023-04-20T03:39:51.002Z,99608.36
2023-04-20T03:46:46.258Z,99615.54
2023-04-20T03:49:29.225Z,99615.12
2023-04-20T03:52:11.748Z,99618.09
2023-04-20T03:54:55.877Z,99614.23
2023-04-20T03:57:34.137Z,99611.69
2023-04-20T04:00:13.751Z,99607.70
2023-04-20T04:03:12.679Z,99604.88
2023-04-20T04:06:40.217Z,99609.55
2023-04-20T04:09:54.206Z,99600.86
2023-04-20T04:12:39.236Z,99603.58
2023-04-20T04:16:08.619Z,99597.32
2023-04-20T04:19:19.490Z,99598.24
2023-04-20T04:22:55.782Z,99603.20
2023-04-20T04:25:59.859Z,99603.63
2023-04-20T04:29:14.903Z,99604.14
2023-04-20T04:31:50.842Z,99599.40
2023-04-20T04:35:22.534Z,99594.98
2023-04-20T04:38:05.665Z,99588.41
2023-04-20T04:44:42.777Z,99585.04
2023-04-20T04:48:59.242Z,99580.44
2023-04-20T04:56:26.512Z,99567.07
2023-04-20T05:00:05.886Z,99564.25
2023-04-20T05:03:16.996Z,99555.41
2023-04-20T05:07:18.097Z,99561.13
2023-04-20T05:11:23.991Z,99561.96
2023-04-20T05:15:33.767Z,99552.99
2023-04-20T05:22:38.196Z,99554.08
2023-04-20T05:30:21.850Z,99557.63
2023-04-20T05:34:05.444Z,99569.87
2023-04-20T05:37:06.429Z,99568.79
2023-04-20T06:01:14.566Z,99582.21
2023-04-20T06:04:48.072Z,99580.06
2023-04-20T06:17:25.466Z,99569.22
2023-04-20T06:21:14.116Z,99563.86
2023-04-20T06:24:32.284Z,99561.91
2023-04-20T06:32:14.616Z,99565.20
2023-04-20T06:35:37.533Z,99568.52
2023-04-20T06:38:36.025Z,99565.98
2023-04-20T06:42:21.359Z,99570.16
2023-04-20T06:45:34.242Z,99562.83
2023-04-20T07:20:09.522Z,99555.19
2023-04-20T07:25:49.894Z,99550.25
2023-04-20T07:28:53.394Z,99559.61
2023-04-20T07:46:48.828Z,99552.10
2023-04-20T07:54:37.686Z,99553.96
2023-04-20T08:01:20.229Z,99545.76
2023-04-20T08:08:24.908Z,99548.63
2023-04-20T09:31:14.623Z,99557.98
2023-04-20T10:55:36.486Z,99569.09
2023-04-20T11:04:42.858Z,99571.80
2023-04-20T11:17:03.936Z,99585.66
2023-04-20T11:59:06.737Z,99598.83
2023-04-20T12:20:50.944Z,99596.25
2023-04-20T12:33:52.224Z,99588.95
2023-04-20T12:36:52.785Z,99599.45
2023-04-20T12:40:37.252Z,99599.58
2023-04-20T12:44:24.756Z,99601.70
2023-04-20T12:56:01.612Z,99609.30
2023-04-20T12:58:29.558Z,99603.58
2023-04-20T13:00:56.808Z,99606.11
2023-04-20T13:03:25.099Z,99606.06
2023-04-20T13:05:56.188Z,99610.04
2023-04-20T13:08:23.924Z,99609.17
2023-04-20T13:10:51.089Z,99612.29
2023-04-20T13:13:23.898Z,99608.12
2023-04-20T13:15:53.674Z,99614.02
2023-04-20T13:18:24.377Z,99607.01
2023-04-20T13:20:55.962Z,99608.06
2023-04-20T13:23:23.996Z,99608.55
2023-04-20T13:29:52.255Z,99608.98
2023-04-20T13:44:01.692Z,99610.35
2023-04-20T13:46:57.560Z,99604.10
2023-04-20T13:50:46.464Z,99605.23
2023-04-20T13:53:56.242Z,99599.33
2023-04-20T13:57:20.067Z,99600.78
2023-04-20T14:00:29.927Z,99602.55
2023-04-20T14:04:17.411Z,99605.19
2023-04-20T14:12:14.708Z,99600.23
2023-04-20T14:16:19.050Z,99600.55
2023-04-20T14:34:02.093Z,99598.14
2023-04-20T14:42:10.911Z,99604.58
2023-04-20T14:44:58.864Z,99608.03
2023-04-20T14:52:03.411Z,99623.54
2023-04-20T14:55:43.549Z,99610.45
2023-04-20T14:59:08.856Z,99622.52
2023-04-20T15:02:57.445Z,99623.51
2023-04-20T15:06:04.522Z,99618.98
2023-04-20T15:09:20.620Z,99620.55
2023-04-20T15:12:34.452Z,99618.85
2023-04-20T15:33:35.123Z,99620.28
2023-04-20T15:45:07.354Z,99615.64
2023-04-20T16:01:54.220Z,99624.51
2023-04-20T16:10:12.835Z,99631.65
2023-04-20T16:13:16.386Z,99639.77
2023-04-20T16:16:29.210Z,99636.58
2023-04-20T16:28:58.588Z,99644.67
2023-04-20T16:36:32.094Z,99652.29
2023-04-20T16:44:43.245Z,99657.42
2023-04-20T16:48:24.990Z,99656.45
2023-04-20T16:56:02.338Z,99665.67
2023-04-20T17:21:22.244Z,99668.91
2023-04-20T17:24:24.597Z,99673.90
2023-04-20T17:32:39.060Z,99674.33
2023-04-20T17:45:02.786Z,99675.10
2023-04-20T17:48:24.465Z,99674.57
2023-04-20T18:00:48.413Z,99665.85
2023-04-20T18:18:10.396Z,99663.70
2023-04-20T18:29:43.519Z,99659.84
2023-04-20T18:46:15.509Z,99652.39
2023-04-20T18:58:19.433Z,99657.34
2023-04-20T19:02:29.546Z,99659.81
2023-04-20T19:05:49.441Z,99651.20
2023-04-20T19:09:07.309Z,99670.05
2023-04-20T19:12:14.787Z,99661.23
2023-04-20T19:16:23.531Z,99665.52
2023-04-20T19:23:45.058Z,99654.88
2023-04-20T19:26:28.986Z,99656.54
2023-04-20T19:42:23.831Z,99662.37
2023-04-20T19:45:13.487Z,99658.73
2023-04-20T19:51:03.596Z,99652.30
2023-04-20T19:53:33.752Z,99655.24
2023-04-20T19:56:06.204Z,99643.60
2023-04-20T19:58:38.954Z,99647.69
2023-04-20T20:01:14.881Z,99652.05
2023-04-20T20:03:49.105Z,99649.40
2023-04-20T20:06:20.177Z,99646.14
2023-04-20T20:08:54.956Z,99645.47
2023-04-20T20:11:29.093Z,99644.67
2023-04-20T20:14:00.862Z,99648.67
2023-04-20T20:16:33.234Z,99648.72
2023-04-20T20:19:06.475Z,99655.00
2023-04-20T20:22:01.935Z,99650.80
2023-04-20T20:24:53.711Z,99642.95
2023-04-20T20:27:50.510Z,99647.52
2023-04-20T20:30:58.085Z,99647.79
2023-04-20T20:34:10.196Z,99648.16
2023-04-20T20:40:52.594Z,99641.13
2023-04-20T20:44:11.750Z,99633.72
2023-04-20T20:47:33.910Z,99631.95
2023-04-20T20:55:36.049Z,99626.70
2023-04-20T20:59:09.211Z,99624.50
2023-04-20T21:02:21.335Z,99623.69
2023-04-20T21:09:02.608Z,99619.48
2023-04-20T21:12:24.919Z,99612.02
2023-04-20T21:15:28.327Z,99616.55
2023-04-20T21:27:18.792Z,99604.91
2023-04-20T21:30:13.448Z,99613.88
2023-04-20T21:37:59.353Z,99608.45
2023-04-20T21:42:01.058Z,99608.66
2023-04-20T21:47:55.021Z,99606.95
2023-04-20T21:51:15.869Z,99600.61
2023-04-20T21:53:58.275Z,99597.05
2023-04-20T21:56:45.495Z,99591.46
2023-04-20T21:59:32.819Z,99601.89
2023-04-20T22:02:58.000Z,99588.45
2023-04-20T22:06:34.156Z,99588.98
2023-04-20T22:09:27.345Z,99597.86
2023-04-20T22:12:28.872Z,99592.60
2023-04-20T22:15:45.546Z,99593.52
2023-04-20T22:18:23.600Z,99592.14
2023-04-20T22:21:03.868Z,99584.70
2023-04-20T22:24:02.358Z,99580.91
2023-04-20T22:26:43.889Z,99580.27
2023-04-20T22:29:21.080Z,99577.02
2023-04-20T22:32:13.904Z,99571.92
2023-04-20T22:38:42.607Z,99568.48
2023-04-20T22:42:19.462Z,99572.08
2023-04-20T22:50:20.021Z,99562.31
2023-04-20T23:10:30.088Z,99563.09
2023-04-20T23:13:17.924Z,99554.84
2023-04-20T23:16:33.305Z,99557.20
2023-04-20T23:19:26.912Z,99556.05
2023-04-20T23:22:29.019Z,99559.20
2023-04-20T23:25:11.683Z,99550.39
2023-04-20T23:28:21.028Z,99545.64
2023-04-20T23:31:41.403Z,99551.56
2023-04-20T23:34:42.469Z,99552.68
2023-04-20T23:44:55.862Z,99547.29
2023-04-20T23:48:15.254Z,99547.17
2023-04-20T23:51:03.928Z,99545.19
2023-04-20T23:53:45.474Z,99550.34
2023-04-20T23:56:41.233Z,99555.20
2023-04-20T23:59:19.567Z,99544.71
